Time;durP1;ratioP1;P1;durP2;ratioP2;P2;SDS_P1;SDS_P2;PMS_P1;PMS_P2;Temp;Humidity;BMP_temperature;BMP_pressure;BME280_temperature;BME280_humidity;BME280_pressure;Samples;Min_cycle;Max_cycle;Signal;HPM_P1;HPM_P2
2021/08/27 00:02:26;;;;;;;6.22;1.80;;;;;;;13.26;86.31;102033.78;5017851;28;20056;-68
2021/08/27 00:04:54;;;;;;;6.18;1.80;;;;;;;13.25;86.18;102029.34;5019917;28;20077;-69
2021/08/27 00:07:22;;;;;;;7.28;2.15;;;;;;;13.25;86.24;102026.66;5020064;28;20056;-69
2021/08/27 00:09:52;;;;;;;7.38;2.05;;;;;;;13.20;86.66;102028.56;5017218;28;20061;-70
2021/08/27 00:12:23;;;;;;;11.15;3.10;;;;;;;13.15;86.69;102028.69;5018623;28;20069;-70
2021/08/27 00:14:51;;;;;;;9.63;2.88;;;;;;;13.12;87.55;102028.75;5018078;28;20088;-69
2021/08/27 00:17:29;;;;;;;6.40;2.70;;;;;;;13.08;87.32;102024.38;5016424;28;20424;-69
2021/08/27 00:19:58;;;;;;;6.00;2.05;;;;;;;13.06;87.44;102031.59;5019637;28;20073;-69
2021/08/27 00:22:29;;;;;;;9.63;2.50;;;;;;;13.05;87.85;102028.00;5016475;28;20057;-70
2021/08/27 00:25:00;;;;;;;10.38;2.78;;;;;;;13.10;87.62;102032.41;5019793;28;20124;-69
2021/08/27 00:27:28;;;;;;;8.45;2.63;;;;;;;13.09;87.83;102023.47;5017697;28;20758;-69
2021/08/27 00:29:57;;;;;;;11.70;2.60;;;;;;;13.10;87.72;102027.03;5021071;28;20061;-71
2021/08/27 00:32:25;;;;;;;5.60;2.22;;;;;;;13.06;87.77;102024.44;5017873;28;20511;-70
2021/08/27 00:34:53;;;;;;;15.27;2.72;;;;;;;13.05;87.83;102022.66;5017425;28;20250;-70
2021/08/27 00:37:22;;;;;;;9.18;2.30;;;;;;;13.09;87.74;102023.47;5018090;28;20072;-69
2021/08/27 00:39:52;;;;;;;9.63;1.95;;;;;;;13.03;87.67;102026.28;5019059;28;20184;-68
2021/08/27 00:42:24;;;;;;;7.50;2.50;;;;;;;13.00;87.96;102027.25;5019343;28;20422;-69
2021/08/27 00:44:51;;;;;;;10.45;2.03;;;;;;;12.99;88.49;102025.50;5020856;28;20053;-68
2021/08/27 00:47:19;;;;;;;7.57;2.00;;;;;;;12.96;88.69;102014.84;5015468;28;20079;-68
2021/08/27 00:49:50;;;;;;;9.82;2.10;;;;;;;12.94;88.25;102023.81;5017181;28;20065;-69
2021/08/27 00:52:18;;;;;;;8.60;2.33;;;;;;;12.96;88.67;102032.72;5016822;28;20630;-69
2021/08/27 00:54:53;;;;;;;8.63;2.00;;;;;;;12.98;88.57;102026.41;5014045;28;20057;-70
2021/08/27 00:57:23;;;;;;;6.53;2.03;;;;;;;13.00;89.25;102016.53;5017653;28;20069;-69
2021/08/27 00:59:54;;;;;;;8.75;2.13;;;;;;;13.00;88.53;102023.69;5017291;28;20696;-69
2021/08/27 01:02:23;;;;;;;6.50;1.98;;;;;;;13.00;88.86;102018.31;5018725;28;20041;-69
2021/08/27 01:04:55;;;;;;;11.50;2.47;;;;;;;12.98;88.68;102017.50;5018233;28;20071;-69
2021/08/27 01:07:26;;;;;;;7.47;2.45;;;;;;;12.96;88.69;102014.84;5017198;28;20385;-68
2021/08/27 01:10:03;;;;;;;7.97;2.50;;;;;;;13.00;88.99;102015.66;5019542;28;20037;-69
2021/08/27 01:12:41;;;;;;;8.23;2.33;;;;;;;13.02;88.68;102016.47;5016826;28;20380;-69
2021/08/27 01:15:15;;;;;;;6.93;2.83;;;;;;;13.05;88.65;102014.59;5019785;28;20208;-69
2021/08/27 01:17:50;;;;;;;5.18;2.00;;;;;;;13.04;88.38;102006.59;5016329;28;20147;-69
2021/08/27 01:20:45;;;;;;;9.40;2.30;;;;;;;13.06;88.91;102012.84;5019537;28;20147;-69
2021/08/27 01:23:16;;;;;;;7.25;2.13;;;;;;;13.13;88.14;102005.50;5017753;28;20104;-68
2021/08/27 01:25:50;;;;;;;5.50;2.03;;;;;;;13.11;88.22;102004.66;5013234;28;20065;-69
2021/08/27 01:28:21;;;;;;;7.38;2.25;;;;;;;13.05;88.30;102011.94;5018234;28;20037;-70
2021/08/27 01:31:09;;;;;;;9.15;3.58;;;;;;;13.05;88.64;102014.59;5016903;28;20135;-70
2021/08/27 01:33:44;;;;;;;9.40;2.50;;;;;;;13.00;88.62;102005.81;5020680;28;20065;-68
2021/08/27 01:36:14;;;;;;;9.65;2.67;;;;;;;13.03;88.70;102011.09;5014539;28;20057;-69
2021/08/27 01:38:45;;;;;;;5.80;2.05;;;;;;;12.96;88.73;102016.66;5020060;28;20049;-69
2021/08/27 01:41:18;;;;;;;9.13;2.20;;;;;;;12.94;88.91;102013.09;5017015;28;20046;-69
2021/08/27 01:43:48;;;;;;;7.50;2.10;;;;;;;12.96;88.76;102014.84;5018354;28;20049;-70
2021/08/27 01:46:18;;;;;;;6.00;2.03;;;;;;;13.02;88.46;102024.53;5012801;28;20042;-70
2021/08/27 01:48:47;;;;;;;6.72;2.28;;;;;;;13.04;88.08;102017.31;5016333;28;20325;-70
2021/08/27 01:51:20;;;;;;;8.80;2.30;;;;;;;13.00;88.38;102016.53;5017325;28;20092;-69
2021/08/27 01:53:49;;;;;;;5.82;2.10;;;;;;;12.98;88.25;102026.41;5015366;28;20206;-72
2021/08/27 01:56:18;;;;;;;9.80;2.55;;;;;;;13.02;87.62;102024.53;5014533;28;20069;-70
2021/08/27 01:58:47;;;;;;;8.07;2.22;;;;;;;13.01;87.98;102028.13;5017917;28;20061;-69
2021/08/27 02:01:17;;;;;;;9.52;2.35;;;;;;;12.99;87.93;102014.78;5016138;28;20147;-70
2021/08/27 02:03:47;;;;;;;9.63;2.20;;;;;;;12.93;88.34;102022.06;5015795;28;20147;-69
2021/08/27 02:06:20;;;;;;;15.02;2.65;;;;;;;12.90;88.13;102020.34;5016700;28;20064;-69
2021/08/27 02:08:49;;;;;;;7.30;2.35;;;;;;;12.94;87.83;102026.50;5022287;28;20151;-70
2021/08/27 02:11:19;;;;;;;6.15;2.15;;;;;;;12.92;87.93;102015.81;5019725;28;20061;-69
2021/08/27 02:13:49;;;;;;;11.43;2.70;;;;;;;12.91;87.66;102032.81;5021153;28;20444;-71
2021/08/27 02:16:17;;;;;;;7.93;2.85;;;;;;;12.85;88.16;102030.28;5020680;28;20453;-69
2021/08/27 02:18:45;;;;;;;8.63;2.42;;;;;;;12.79;88.43;102030.44;5020785;28;20066;-69
2021/08/27 02:21:14;;;;;;;7.57;2.20;;;;;;;12.78;88.34;102032.19;5021326;28;20072;-68
2021/08/27 02:23:47;;;;;;;5.10;2.30;;;;;;;12.75;88.48;102029.59;5020897;28;20061;-69
2021/08/27 02:26:16;;;;;;;6.13;2.17;;;;;;;12.73;88.60;102035.91;5019482;28;20065;-69
2021/08/27 02:28:46;;;;;;;7.65;2.47;;;;;;;12.75;88.30;102029.59;5021058;28;20054;-70
2021/08/27 02:31:14;;;;;;;8.25;2.20;;;;;;;12.69;88.35;102035.09;5021699;28;20545;-68
2021/08/27 02:33:48;;;;;;;8.02;2.10;;;;;;;12.65;89.10;102042.31;5021229;28;20153;-69
2021/08/27 02:36:20;;;;;;;7.88;2.40;;;;;;;12.58;89.35;102035.34;5020578;28;20152;-69
2021/08/27 02:38:51;;;;;;;10.20;2.50;;;;;;;12.54;89.43;102036.31;5020122;28;20069;-69
2021/08/27 02:41:22;;;;;;;;;;;;;;;12.50;89.40;102032.81;5019750;28;20069;-68
2021/08/27 02:43:52;;;;;;;7.03;2.88;;;;;;;12.44;89.82;102038.28;5021883;28;20355;-70
2021/08/27 02:46:20;;;;;;;13.05;3.60;;;;;;;12.39;90.05;102044.66;5022376;28;20474;-69
2021/08/27 02:48:48;;;;;;;9.55;2.80;;;;;;;12.36;90.18;102036.69;5019672;28;20053;-70
2021/08/27 02:51:23;;;;;;;8.50;2.65;;;;;;;12.42;90.55;102049.94;5022787;28;20475;-70
2021/08/27 02:53:57;;;;;;;7.45;2.70;;;;;;;12.47;90.58;102042.72;5020676;28;20052;-69
2021/08/27 02:56:26;;;;;;;;;;;;;;;12.40;90.68;102036.59;5022176;28;20220;-69
2021/08/27 02:58:58;;;;;;;10.10;2.83;;;;;;;12.46;90.84;102044.50;5018425;28;19936;-69
2021/08/27 03:01:37;;;;;;;11.07;3.33;;;;;;;12.43;90.87;102033.84;5022852;28;20061;-69
2021/08/27 03:04:12;;;;;;;8.48;2.72;;;;;;;12.35;90.85;102035.81;5017771;28;20069;-69
2021/08/27 03:06:48;;;;;;;11.75;2.70;;;;;;;12.31;91.28;102047.50;5021525;28;20057;-69
2021/08/27 03:09:18;;;;;;;7.75;2.40;;;;;;;12.29;91.60;102028.78;5017448;28;20475;-69
2021/08/27 03:11:53;;;;;;;10.25;2.80;;;;;;;12.26;91.69;102036.88;5019213;28;20153;-68
2021/08/27 03:14:30;;;;;;;10.02;2.63;;;;;;;12.18;91.71;102036.16;5016812;28;20046;-69
2021/08/27 03:17:05;;;;;;;13.02;3.33;;;;;;;12.13;92.47;102041.56;5019877;28;20061;-70
2021/08/27 03:19:41;;;;;;;8.40;2.60;;;;;;;12.07;92.51;102040.81;5022023;28;20061;-69
2021/08/27 03:22:14;;;;;;;11.70;2.90;;;;;;;12.04;92.70;102036.41;5017638;28;20387;-69
2021/08/27 03:24:48;;;;;;;;;;;;;;;12.08;92.49;102046.13;5016730;28;20148;-69
2021/08/27 03:27:19;;;;;;;8.48;1.90;;;;;;;12.05;92.30;102039.97;5022001;28;19925;-69
2021/08/27 03:29:53;;;;;;;9.32;2.47;;;;;;;12.01;92.52;102038.28;5018494;28;20120;-70
2021/08/27 03:32:23;;;;;;;6.60;2.25;;;;;;;11.98;92.58;102041.00;5022979;28;20159;-71
2021/08/27 03:34:52;;;;;;;12.50;2.55;;;;;;;11.95;92.82;102034.81;5020995;28;20159;-68
2021/08/27 03:37:21;;;;;;;17.23;2.92;;;;;;;11.91;92.84;102033.06;5017247;28;20320;-69
2021/08/27 03:39:53;;;;;;;11.27;2.30;;;;;;;11.86;92.77;102039.41;5017582;28;20087;-69
2021/08/27 03:42:23;;;;;;;11.52;2.47;;;;;;;11.79;93.32;102033.28;5019870;28;20778;-69
2021/08/27 03:44:55;;;;;;;8.48;2.78;;;;;;;11.71;93.39;102036.09;5018884;28;20115;-69
2021/08/27 03:47:24;;;;;;;5.72;2.20;;;;;;;11.64;93.10;102034.44;5016820;28;20049;-68
2021/08/27 03:49:56;;;;;;;7.00;2.20;;;;;;;11.59;93.97;102042.56;5023920;28;20065;-69
2021/08/27 03:52:25;;;;;;;9.95;2.13;;;;;;;11.54;94.39;102038.16;5019333;28;20352;-69
2021/08/27 03:54:54;;;;;;;9.18;2.33;;;;;;;11.53;94.25;102045.31;5015801;28;20472;-68
2021/08/27 03:57:25;;;;;;;7.38;2.53;;;;;;;11.51;94.39;102046.22;5018152;28;20069;-70
2021/08/27 03:59:53;;;;;;;9.60;2.35;;;;;;;11.48;95.70;102055.19;5019660;28;20075;-70
2021/08/27 04:02:22;;;;;;;9.35;2.72;;;;;;;11.48;95.49;102047.19;5019657;28;20042;-68
2021/08/27 04:04:50;;;;;;;5.43;2.10;;;;;;;11.46;94.85;102045.44;5016733;28;20069;-69
2021/08/27 04:07:19;;;;;;;5.88;2.15;;;;;;;11.43;94.84;102048.19;5020954;28;20065;-69
2021/08/27 04:09:47;;;;;;;6.22;2.35;;;;;;;11.45;95.62;102051.69;5018981;28;20607;-69
2021/08/27 04:12:17;;;;;;;8.98;2.90;;;;;;;11.48;95.82;102048.97;5016637;28;20075;-68
2021/08/27 04:14:45;;;;;;;8.27;2.30;;;;;;;11.47;95.43;102049.88;5015620;28;20360;-68
2021/08/27 04:17:14;;;;;;;5.15;2.25;;;;;;;11.55;95.70;102042.63;5017672;28;20396;-68
2021/08/27 04:19:42;;;;;;;8.48;2.33;;;;;;;11.59;96.15;102044.31;5017771;28;20193;-68
2021/08/27 04:22:10;;;;;;;8.77;2.42;;;;;;;11.63;95.26;102046.06;5019624;28;20041;-67
2021/08/27 04:24:38;;;;;;;8.98;2.70;;;;;;;11.72;96.02;102045.88;5018351;28;20045;-68
2021/08/27 04:27:09;;;;;;;10.15;2.58;;;;;;;11.73;95.51;102042.31;5017874;28;20080;-68
2021/08/27 04:29:40;;;;;;;11.07;3.05;;;;;;;11.78;95.85;102050.22;5017075;28;20503;-68
2021/08/27 04:32:09;;;;;;;6.55;2.25;;;;;;;11.80;95.45;102051.09;5018882;28;20971;-67
2021/08/27 04:34:37;;;;;;;11.50;2.78;;;;;;;11.85;95.42;102049.22;5016612;28;20555;-68
2021/08/27 04:37:05;;;;;;;10.32;2.40;;;;;;;11.91;95.62;102043.78;5022010;28;20170;-67
2021/08/27 04:39:33;;;;;;;9.07;3.13;;;;;;;11.95;95.46;102056.19;5021793;28;20156;-68
2021/08/27 04:42:03;;;;;;;9.35;3.28;;;;;;;11.93;95.63;102055.31;5016755;28;20053;-68
2021/08/27 04:44:33;;;;;;;11.02;3.35;;;;;;;11.91;95.70;102050.94;5019538;28;20077;-68
2021/08/27 04:47:03;;;;;;;9.90;2.40;;;;;;;11.86;95.65;102050.97;5016011;28;20100;-68
2021/08/27 04:49:31;;;;;;;6.35;2.60;;;;;;;11.85;96.00;102059.03;5019630;28;20048;-68
2021/08/27 04:51:59;;;;;;;10.32;2.58;;;;;;;11.84;96.12;102057.28;5016071;28;20069;-69
2021/08/27 04:54:27;;;;;;;10.73;3.42;;;;;;;11.85;96.58;102054.56;5017101;28;20062;-68
2021/08/27 04:56:54;;;;;;;9.43;2.55;;;;;;;11.85;96.42;102054.56;5019260;28;20065;-68
2021/08/27 04:59:22;;;;;;;8.38;2.47;;;;;;;11.84;96.62;102059.94;5014925;28;20075;-68
2021/08/27 05:01:50;;;;;;;8.65;2.60;;;;;;;11.79;96.34;102060.03;5018444;28;20351;-68
2021/08/27 05:04:20;;;;;;;7.68;2.92;;;;;;;11.84;96.52;102062.63;5014678;28;20149;-67
2021/08/27 05:06:47;;;;;;;7.07;3.47;;;;;;;11.80;96.39;102050.19;5020212;28;20115;-68
2021/08/27 05:09:17;;;;;;;6.75;2.17;;;;;;;11.78;96.50;102056.47;5017801;28;20057;-68
2021/08/27 05:11:45;;;;;;;11.15;4.13;;;;;;;11.83;96.30;102060.84;5019399;28;20418;-69
2021/08/27 05:14:16;;;;;;;6.20;2.40;;;;;;;11.83;96.23;102063.53;5017792;28;20041;-68
2021/08/27 05:16:44;;;;;;;7.55;2.50;;;;;;;11.89;95.96;102063.41;5017313;28;20175;-68
2021/08/27 05:19:14;;;;;;;9.05;2.33;;;;;;;11.94;95.95;102059.78;5016548;28;20046;-68
2021/08/27 05:21:44;;;;;;;4.70;2.22;;;;;;;11.96;95.72;102063.31;5017829;28;20334;-69
2021/08/27 05:24:12;;;;;;;10.23;2.45;;;;;;;12.02;95.60;102070.34;5015789;28;20087;-69
2021/08/27 05:26:40;;;;;;;6.43;2.72;;;;;;;12.03;95.64;102073.91;5019819;28;20065;-68
2021/08/27 05:29:09;;;;;;;5.90;2.20;;;;;;;12.07;95.59;102068.47;5016752;28;20068;-68
2021/08/27 05:31:37;;;;;;;8.80;2.22;;;;;;;12.16;95.59;102070.09;5017868;28;20065;-69
2021/08/27 05:34:07;;;;;;;5.18;2.20;;;;;;;12.27;95.53;102076.09;5015441;28;20045;-69
2021/08/27 05:36:35;;;;;;;6.57;2.47;;;;;;;12.39;95.16;102074.09;5016096;28;20362;-68
2021/08/27 05:39:05;;;;;;;12.85;2.60;;;;;;;12.50;94.49;102072.97;5020227;28;20654;-68
2021/08/27 05:41:34;;;;;;;9.30;3.75;;;;;;;12.69;94.26;102076.13;5020208;28;20057;-68
2021/08/27 05:44:05;;;;;;;10.25;3.00;;;;;;;12.90;93.21;102079.25;5018866;28;20095;-68
2021/08/27 05:46:34;;;;;;;8.88;2.40;;;;;;;13.06;92.23;102072.66;5022427;28;20133;-68
2021/08/27 05:49:05;;;;;;;5.25;2.40;;;;;;;13.20;90.83;102077.69;5020397;28;20277;-71
2021/08/27 05:51:33;;;;;;;6.88;2.40;;;;;;;13.40;90.07;102079.03;5020704;28;20072;-69
2021/08/27 05:54:01;;;;;;;7.00;2.25;;;;;;;13.58;89.50;102078.59;5018217;28;20444;-68
2021/08/27 05:56:31;;;;;;;10.02;2.72;;;;;;;13.76;88.97;102076.38;5018920;28;20372;-68
2021/08/27 05:58:59;;;;;;;14.07;3.20;;;;;;;13.92;87.79;102080.41;5021685;28;20045;-68
2021/08/27 06:01:27;;;;;;;7.85;2.58;;;;;;;14.04;86.83;102081.88;5019627;28;20106;-70
2021/08/27 06:03:56;;;;;;;8.45;3.90;;;;;;;14.23;86.42;102081.38;5017628;28;20469;-69
2021/08/27 06:06:24;;;;;;;7.95;2.40;;;;;;;14.29;86.03;102086.59;5020386;28;20093;-68
2021/08/27 06:08:53;;;;;;;9.90;2.50;;;;;;;14.02;86.70;102081.91;5022031;28;20183;-68
2021/08/27 06:11:21;;;;;;;9.02;3.83;;;;;;;14.13;86.48;102096.84;5020916;28;20403;-69
2021/08/27 06:13:53;;;;;;;8.45;2.47;;;;;;;14.36;85.88;102089.06;5020802;28;20069;-68
2021/08/27 06:16:24;;;;;;;7.13;2.50;;;;;;;14.75;85.35;102083.47;5021613;28;20397;-69
2021/08/27 06:18:57;;;;;;;6.15;2.40;;;;;;;15.00;83.78;102089.91;5020474;28;20321;-69
2021/08/27 06:21:26;;;;;;;8.77;2.20;;;;;;;14.64;84.54;102082.03;5024602;28;20061;-69
2021/08/27 06:23:57;;;;;;;9.32;2.45;;;;;;;14.48;85.54;102082.47;5017920;28;20381;-69
2021/08/27 06:26:25;;;;;;;6.88;2.53;;;;;;;14.56;85.25;102084.94;5019339;28;20068;-68
2021/08/27 06:28:55;;;;;;;8.55;2.45;;;;;;;14.61;84.96;102090.19;5017472;28;20395;-69
2021/08/27 06:31:22;;;;;;;7.63;2.15;;;;;;;15.17;84.20;102082.22;5019383;28;20041;-71
2021/08/27 06:33:51;;;;;;;5.50;2.30;;;;;;;15.67;81.28;102078.81;5018998;28;20086;-70
2021/08/27 06:36:24;;;;;;;9.55;2.30;;;;;;;16.00;80.21;102082.16;5019024;28;20144;-69
2021/08/27 06:38:53;;;;;;;9.00;2.78;;;;;;;16.26;79.59;102083.06;5021605;28;20070;-69
2021/08/27 06:41:24;;;;;;;6.90;2.83;;;;;;;16.34;77.36;102083.66;5018398;28;20045;-70
2021/08/27 06:43:54;;;;;;;7.15;2.33;;;;;;;16.37;76.62;102086.22;5019610;28;20463;-70
2021/08/27 06:46:24;;;;;;;8.50;2.33;;;;;;;16.56;76.48;102088.25;5018981;28;20037;-70
2021/08/27 06:48:55;;;;;;;12.43;3.10;;;;;;;16.57;75.71;102096.28;5020835;28;20156;-70
2021/08/27 06:51:23;;;;;;;10.27;2.78;;;;;;;16.86;75.42;102086.25;5020824;28;20061;-70
2021/08/27 06:53:53;;;;;;;7.28;2.80;;;;;;;16.90;73.63;102084.31;5017919;28;20069;-71
2021/08/27 06:56:24;;;;;;;11.68;3.22;;;;;;;17.10;74.18;102087.09;5021036;28;20148;-69
2021/08/27 06:58:54;;;;;;;9.70;3.28;;;;;;;17.23;72.49;102087.50;5019352;28;20060;-70
2021/08/27 07:01:22;;;;;;;12.77;3.30;;;;;;;17.09;73.14;102097.94;5019125;28;20322;-69
2021/08/27 07:03:52;;;;;;;11.52;2.97;;;;;;;17.70;72.76;102100.81;5025081;28;20155;-70
2021/08/27 07:06:20;;;;;;;10.25;2.70;;;;;;;17.59;71.96;102102.22;5020161;28;20385;-69
2021/08/27 07:08:49;;;;;;;10.05;3.03;;;;;;;17.68;72.15;102085.66;5022833;28;20096;-69
2021/08/27 07:11:18;;;;;;;8.77;2.30;;;;;;;17.64;70.57;102094.81;5020466;28;20049;-69
2021/08/27 07:13:46;;;;;;;7.78;2.28;;;;;;;17.58;72.53;102106.75;5019626;28;20348;-69
2021/08/27 07:16:16;;;;;;;5.90;2.40;;;;;;;17.87;71.43;102101.97;5022786;28;20180;-69
2021/08/27 07:18:44;;;;;;;11.48;2.40;;;;;;;17.65;71.36;102097.44;5015633;28;20248;-68
2021/08/27 07:21:14;;;;;;;8.32;1.92;;;;;;;17.35;72.82;102110.41;5018499;28;20374;-69
2021/08/27 07:23:42;;;;;;;6.45;2.20;;;;;;;17.33;73.57;102110.47;5018013;28;20302;-69
2021/08/27 07:26:11;;;;;;;4.93;2.05;;;;;;;17.29;72.97;102107.94;5018918;28;20432;-70
2021/08/27 07:28:39;;;;;;;5.03;2.15;;;;;;;17.55;71.78;102112.25;5018692;28;20068;-71
2021/08/27 07:31:07;;;;;;;5.25;1.90;;;;;;;18.09;70.57;102101.94;5019297;28;20037;-69
2021/08/27 07:33:37;;;;;;;5.00;1.80;;;;;;;17.73;70.19;102100.69;5019224;28;20072;-70
2021/08/27 07:36:05;;;;;;;6.55;1.80;;;;;;;18.32;68.65;102102.72;5017324;28;20067;-69
2021/08/27 07:38:34;;;;;;;5.10;1.65;;;;;;;18.75;67.38;102098.94;5020336;28;20092;-69
2021/08/27 07:41:02;;;;;;;5.93;1.60;;;;;;;18.13;66.83;102100.84;5020486;28;20065;-69
2021/08/27 07:43:30;;;;;;;10.93;2.45;;;;;;;18.35;67.45;102098.06;5018382;28;20064;-70
2021/08/27 07:46:00;;;;;;;6.35;1.77;;;;;;;18.55;65.99;102105.25;5019680;28;20069;-70
2021/08/27 07:48:28;;;;;;;10.48;2.25;;;;;;;18.58;65.57;102107.84;5020930;28;20120;-69
2021/08/27 07:50:58;;;;;;;8.80;2.30;;;;;;;18.62;64.47;102112.13;5019101;28;20356;-69
2021/08/27 07:53:26;;;;;;;7.75;2.10;;;;;;;18.74;65.02;102123.34;5018025;28;20407;-70
2021/08/27 07:55:54;;;;;;;5.65;2.25;;;;;;;18.75;63.83;102122.41;5019227;28;20057;-70
2021/08/27 07:58:21;;;;;;;6.03;1.85;;;;;;;18.91;63.33;102106.38;5019685;28;20095;-69
2021/08/27 08:00:57;;;;;;;5.32;1.73;;;;;;;18.66;62.47;102113.78;5021190;28;20144;-69
2021/08/27 08:03:26;;;;;;;6.63;1.98;;;;;;;19.13;62.13;102109.81;5021448;28;20056;-70
2021/08/27 08:05:54;;;;;;;6.63;2.83;;;;;;;19.17;60.83;102122.25;5020021;28;20057;-69
2021/08/27 08:08:24;;;;;;;6.55;1.90;;;;;;;19.26;60.01;102126.34;5018678;28;20063;-70
2021/08/27 08:10:52;;;;;;;6.18;1.90;;;;;;;19.19;59.94;102122.19;5017577;28;20139;-70
2021/08/27 08:13:20;;;;;;;7.55;2.28;;;;;;;19.73;58.11;102114.09;5020581;28;20304;-69
2021/08/27 08:15:48;;;;;;;5.32;2.10;;;;;;;20.38;57.17;102119.81;5018324;28;20543;-69
2021/08/27 08:18:16;;;;;;;8.73;2.20;;;;;;;19.71;59.08;102116.00;5016901;28;20089;-70
2021/08/27 08:20:44;;;;;;;7.93;2.65;;;;;;;20.10;56.38;102120.38;5019054;28;20060;-70
2021/08/27 08:23:12;;;;;;;5.68;2.17;;;;;;;19.82;54.51;102120.91;5017902;28;20076;-69
2021/08/27 08:25:44;;;;;;;6.47;2.15;;;;;;;19.07;57.66;102130.84;5019939;28;20046;-69
2021/08/27 08:28:13;;;;;;;7.35;2.28;;;;;;;19.88;56.94;102123.31;5016355;28;20088;-69
2021/08/27 08:30:44;;;;;;;8.70;2.33;;;;;;;20.13;56.19;102123.78;5020167;28;20215;-69
2021/08/27 08:33:12;;;;;;;7.07;2.30;;;;;;;19.44;56.69;102126.38;5016010;28;20523;-70
2021/08/27 08:35:40;;;;;;;11.93;2.95;;;;;;;20.24;56.22;102128.63;5016538;28;20757;-71
2021/08/27 08:38:09;;;;;;;8.02;3.15;;;;;;;19.97;57.40;102128.25;5019189;28;20068;-69
2021/08/27 08:40:41;;;;;;;9.77;2.50;;;;;;;20.51;54.51;102130.84;5017498;28;21064;-70
2021/08/27 08:43:12;;;;;;;7.55;2.33;;;;;;;19.34;56.31;102123.25;5017366;28;20208;-68
2021/08/27 08:45:46;;;;;;;9.40;3.25;;;;;;;20.45;55.84;102115.81;5018177;28;20061;-69
2021/08/27 08:48:18;;;;;;;9.98;2.88;;;;;;;19.84;56.42;102125.31;5016524;28;20089;-69
2021/08/27 08:50:50;;;;;;;7.05;2.17;;;;;;;19.25;57.72;102121.00;5016230;28;20062;-70
2021/08/27 08:53:22;;;;;;;9.82;2.40;;;;;;;19.57;57.22;102119.41;5014957;28;20483;-69
2021/08/27 08:55:52;;;;;;;8.88;2.63;;;;;;;19.86;56.55;102122.53;5018160;28;20053;-69
2021/08/27 08:58:24;;;;;;;8.25;2.67;;;;;;;19.82;57.36;102123.59;5019450;28;20611;-69
2021/08/27 09:00:53;;;;;;;7.50;2.40;;;;;;;19.98;56.35;102129.16;5018366;28;20049;-70
2021/08/27 09:03:21;;;;;;;5.82;2.00;;;;;;;19.98;54.37;102132.72;5016562;28;20116;-70
2021/08/27 09:05:50;;;;;;;7.53;2.67;;;;;;;20.01;56.30;102131.69;5015894;28;20611;-70
2021/08/27 09:08:32;;;;;;;8.10;2.63;;;;;;;19.75;56.89;102133.88;5015799;28;20515;-70
2021/08/27 09:11:15;;;;;;;7.28;2.38;;;;;;;19.06;58.41;102130.00;5022228;28;20061;-70
2021/08/27 09:13:48;;;;;;;6.85;2.42;;;;;;;18.62;59.46;102132.91;5016177;28;20044;-69
2021/08/27 09:16:17;;;;;;;8.25;2.50;;;;;;;18.48;60.21;102131.69;5018258;28;20722;-69
2021/08/27 09:18:50;;;;;;;8.35;2.75;;;;;;;18.51;60.67;102137.91;5015537;28;20079;-69
2021/08/27 09:21:34;;;;;;;13.85;2.78;;;;;;;18.48;61.35;102136.22;5018613;28;20041;-69
2021/08/27 09:24:21;;;;;;;11.20;2.70;;;;;;;18.36;61.67;102136.78;5016220;28;20463;-70
2021/08/27 09:26:53;;;;;;;6.22;2.45;;;;;;;18.28;62.03;102129.88;5016709;28;20058;-69
2021/08/27 09:29:41;;;;;;;9.13;3.00;;;;;;;18.31;63.17;102130.72;5017942;28;20068;-69
2021/08/27 09:32:25;;;;;;;11.30;3.03;;;;;;;18.10;63.41;102134.28;5016450;28;20073;-69
2021/08/27 09:35:01;;;;;;;9.77;2.65;;;;;;;18.03;64.63;102123.78;5014130;28;20084;-71
2021/08/27 09:37:39;;;;;;;7.28;2.45;;;;;;;17.90;64.47;102123.44;5019044;28;20045;-70
2021/08/27 09:40:09;;;;;;;11.43;3.08;;;;;;;18.51;62.96;102127.09;5017234;28;20046;-69
2021/08/27 09:42:40;;;;;;;5.13;2.50;;;;;;;18.96;61.37;102128.66;5016967;28;20050;-69
2021/08/27 09:45:11;;;;;;;10.40;2.90;;;;;;;18.45;61.05;102137.22;5018399;28;20053;-71
2021/08/27 09:47:55;;;;;;;8.48;2.70;;;;;;;18.78;59.29;102130.34;5018123;28;20061;-71
2021/08/27 09:50:30;;;;;;;10.23;2.60;;;;;;;18.97;58.64;102122.31;5015746;28;20052;-69
2021/08/27 09:53:00;;;;;;;8.45;2.60;;;;;;;19.55;56.58;102122.19;5016893;28;20310;-69
2021/08/27 09:55:30;;;;;;;12.23;3.35;;;;;;;19.23;58.15;102130.03;5018671;28;20065;-69
2021/08/27 09:58:10;;;;;;;9.35;3.10;;;;;;;19.90;57.95;102122.28;5016170;28;20072;-70
2021/08/27 10:00:43;;;;;;;7.63;2.63;;;;;;;19.50;56.27;102116.13;5017375;28;20049;-70
2021/08/27 10:03:19;;;;;;;;;;;;;;;19.43;57.63;102125.50;5018784;28;20071;-67
2021/08/27 10:05:54;;;;;;;7.75;2.40;;;;;;;18.96;55.99;102123.25;5018004;28;19940;-67
2021/08/27 10:08:24;;;;;;;9.70;2.40;;;;;;;19.22;55.56;102120.19;5017159;28;20106;-68
2021/08/27 10:10:57;;;;;;;9.25;2.83;;;;;;;19.25;56.38;102119.16;5017924;28;20152;-68
2021/08/27 10:13:31;;;;;;;12.68;2.83;;;;;;;19.78;55.28;102115.66;5016485;28;20375;-69
2021/08/27 10:16:00;;;;;;;10.02;2.70;;;;;;;20.67;54.77;102117.38;5017674;28;20080;-67
2021/08/27 10:18:28;;;;;;;9.73;2.83;;;;;;;19.51;55.51;102120.59;5016013;28;20041;-69
2021/08/27 10:20:57;;;;;;;5.82;2.35;;;;;;;19.21;56.59;102121.13;5016999;28;20073;-68
2021/08/27 10:23:25;;;;;;;7.60;2.60;;;;;;;19.57;56.49;102111.28;5016083;28;20062;-67
2021/08/27 10:25:53;;;;;;;6.43;2.47;;;;;;;19.26;56.66;102111.91;5018335;28;20563;-68
2021/08/27 10:28:29;;;;;;;7.97;2.50;;;;;;;19.96;55.14;102112.97;5019466;28;20107;-67
2021/08/27 10:31:02;;;;;;;7.10;2.15;;;;;;;20.04;53.39;102115.25;5019071;28;20148;-68
2021/08/27 10:34:06;;;;;;;10.18;2.35;;;;;;;20.24;53.28;102111.50;5017061;28;20052;-68
2021/08/27 10:36:50;;;;;;;6.20;2.25;;;;;;;20.88;51.72;102105.34;5019561;28;20069;-68
2021/08/27 10:39:40;;;;;;;7.60;2.42;;;;;;;20.32;52.23;102112.00;5021748;28;20065;-68
2021/08/27 10:42:10;;;;;;;8.50;2.50;;;;;;;20.39;52.42;102108.00;5020976;28;20057;-68
2021/08/27 10:44:53;;;;;;;12.27;3.28;;;;;;;19.89;52.05;102101.56;5022614;28;20045;-69
2021/08/27 10:47:22;;;;;;;7.65;2.22;;;;;;;20.25;53.05;102107.88;5020587;28;20058;-70
2021/08/27 10:49:59;;;;;;;8.15;2.80;;;;;;;19.71;53.87;102107.88;5023630;28;20111;-67
2021/08/27 10:52:36;;;;;;;7.57;2.33;;;;;;;20.08;52.79;102112.31;5018567;28;20061;-66
2021/08/27 10:55:16;;;;;;;9.40;2.42;;;;;;;20.71;52.19;102103.56;5022527;28;20065;-68
2021/08/27 10:57:48;;;;;;;8.35;1.92;;;;;;;21.16;50.86;102092.94;5018109;28;20077;-68
2021/08/27 11:00:31;;;;;;;7.47;2.28;;;;;;;20.96;53.04;102106.75;5020373;28;20041;-68
2021/08/27 11:03:01;;;;;;;8.68;3.00;;;;;;;20.54;53.59;102095.44;5021078;28;20057;-68
2021/08/27 11:05:35;;;;;;;7.88;2.42;;;;;;;20.24;54.18;102109.66;5019788;28;20057;-67
2021/08/27 11:08:08;;;;;;;10.18;2.33;;;;;;;20.81;54.07;102098.53;5020289;28;20148;-67
2021/08/27 11:10:37;;;;;;;;;;;;;;;20.42;52.90;102106.97;5020325;28;20312;-67
2021/08/27 11:13:12;;;;;;;6.68;1.90;;;;;;;19.72;55.14;102105.09;5021992;28;19933;-67
2021/08/27 11:15:42;;;;;;;10.73;2.45;;;;;;;20.76;53.64;102108.75;5019589;28;20128;-68
2021/08/27 11:18:24;;;;;;;8.40;2.30;;;;;;;21.26;51.42;102104.13;5017198;28;20118;-69
2021/08/27 11:20:54;;;;;;;8.55;2.63;;;;;;;20.24;54.33;102106.97;5020366;28;20046;-69
2021/08/27 11:23:23;;;;;;;7.63;2.33;;;;;;;19.37;56.06;102104.16;5018669;28;20149;-70
2021/08/27 11:26:09;;;;;;;9.05;2.47;;;;;;;19.32;57.85;102107.06;5024051;28;20061;-69
2021/08/27 11:28:37;;;;;;;10.95;2.65;;;;;;;20.02;56.07;102099.09;5018553;28;20101;-71
2021/08/27 11:31:07;;;;;;;6.85;2.17;;;;;;;20.05;54.92;102104.34;5018839;28;20130;-69
2021/08/27 11:33:53;;;;;;;7.57;2.13;;;;;;;20.28;55.38;102097.72;5019352;28;20068;-69
2021/08/27 11:36:24;;;;;;;10.93;2.90;;;;;;;20.07;55.99;102109.69;5023214;28;20061;-69
2021/08/27 11:38:59;;;;;;;5.60;2.05;;;;;;;20.77;53.90;102109.63;5019306;28;20099;-69
2021/08/27 11:41:27;;;;;;;12.00;2.90;;;;;;;20.00;55.50;102117.25;5018908;28;20127;-69
2021/08/27 11:44:07;;;;;;;11.57;2.85;;;;;;;20.19;54.52;102105.47;5019693;28;20038;-71